sensor_id;sensor_type;location;lat;lon;timestamp;pressure;altitude;pressure_sealevel;temperature;humidity
41703;BME280;861;48.808;9.006;2023-03-03T00:01:51;97271.66;;;4.41;67.58
41703;BME280;861;48.808;9.006;2023-03-03T00:04:17;97275.50;;;4.40;67.28
41703;BME280;861;48.808;9.006;2023-03-03T00:06:44;97274.50;;;4.33;67.82
41703;BME280;861;48.808;9.006;2023-03-03T00:09:11;97279.53;;;4.22;68.23
41703;BME280;861;48.808;9.006;2023-03-03T00:11:37;97274.03;;;4.31;68.30
41703;BME280;861;48.808;9.006;2023-03-03T00:14:29;97278.72;;;4.46;67.74
41703;BME280;861;48.808;9.006;2023-03-03T00:17:11;97277.94;;;4.57;67.35
41703;BME280;861;48.808;9.006;2023-03-03T00:19:45;97275.81;;;4.51;67.64
41703;BME280;861;48.808;9.006;2023-03-03T00:22:36;97282.91;;;4.43;68.01
41703;BME280;861;48.808;9.006;2023-03-03T00:27:44;97283.34;;;4.45;67.73
41703;BME280;861;48.808;9.006;2023-03-03T00:30:25;97277.06;;;4.29;68.08
41703;BME280;861;48.808;9.006;2023-03-03T00:32:54;97273.69;;;4.32;67.92
41703;BME280;861;48.808;9.006;2023-03-03T00:35:33;97282.91;;;4.31;68.24
41703;BME280;861;48.808;9.006;2023-03-03T00:38:16;97275.94;;;4.42;68.10
41703;BME280;861;48.808;9.006;2023-03-03T00:40:45;97273.94;;;4.39;67.69
41703;BME280;861;48.808;9.006;2023-03-03T00:43:24;97284.03;;;4.30;68.12
41703;BME280;861;48.808;9.006;2023-03-03T00:45:58;97279.41;;;4.43;67.84
41703;BME280;861;48.808;9.006;2023-03-03T00:48:42;97273.56;;;4.53;67.37
41703;BME280;861;48.808;9.006;2023-03-03T00:51:28;97283.31;;;4.57;67.42
41703;BME280;861;48.808;9.006;2023-03-03T00:53:58;97283.66;;;4.56;67.43
41703;BME280;861;48.808;9.006;2023-03-03T00:56:25;97272.53;;;4.57;67.39
41703;BME280;861;48.808;9.006;2023-03-03T00:58:52;97276.91;;;4.62;67.27
41703;BME280;861;48.808;9.006;2023-03-03T01:01:19;97272.69;;;4.49;67.62
41703;BME280;861;48.808;9.006;2023-03-03T01:03:45;97271.34;;;4.31;68.43
41703;BME280;861;48.808;9.006;2023-03-03T01:06:13;97269.22;;;4.24;68.31
41703;BME280;861;48.808;9.006;2023-03-03T01:08:40;97267.72;;;4.51;67.81
41703;BME280;861;48.808;9.006;2023-03-03T01:11:19;97263.91;;;4.40;67.44
41703;BME280;861;48.808;9.006;2023-03-03T01:13:51;97266.94;;;4.38;67.75
41703;BME280;861;48.808;9.006;2023-03-03T01:16:18;97258.44;;;4.36;67.62
41703;BME280;861;48.808;9.006;2023-03-03T01:18:45;97260.78;;;4.26;67.87
41703;BME280;861;48.808;9.006;2023-03-03T01:21:12;97262.94;;;4.20;67.88
41703;BME280;861;48.808;9.006;2023-03-03T01:23:39;97266.75;;;4.07;68.21
41703;BME280;861;48.808;9.006;2023-03-03T01:26:06;97268.34;;;3.96;68.44
41703;BME280;861;48.808;9.006;2023-03-03T01:28:33;97273.16;;;3.67;69.52
41703;BME280;861;48.808;9.006;2023-03-03T01:31:02;97274.16;;;3.86;69.49
41703;BME280;861;48.808;9.006;2023-03-03T01:33:32;97271.91;;;4.00;68.85
41703;BME280;861;48.808;9.006;2023-03-03T01:36:01;97270.91;;;4.17;68.71
41703;BME280;861;48.808;9.006;2023-03-03T01:38:29;97279.66;;;4.38;67.78
41703;BME280;861;48.808;9.006;2023-03-03T01:40:58;97279.41;;;4.43;67.38
41703;BME280;861;48.808;9.006;2023-03-03T01:43:32;97272.69;;;4.49;67.15
41703;BME280;861;48.808;9.006;2023-03-03T01:48:39;97271.91;;;4.36;67.29
41703;BME280;861;48.808;9.006;2023-03-03T01:51:25;97272.22;;;4.35;67.11
41703;BME280;861;48.808;9.006;2023-03-03T01:54:03;97272.78;;;4.40;66.83
41703;BME280;861;48.808;9.006;2023-03-03T01:56:32;97259.31;;;4.40;66.79
41703;BME280;861;48.808;9.006;2023-03-03T01:59:20;97265.75;;;4.12;67.72
41703;BME280;861;48.808;9.006;2023-03-03T02:01:50;97258.78;;;3.99;68.08
41703;BME280;861;48.808;9.006;2023-03-03T02:04:18;97254.06;;;3.96;68.18
41703;BME280;861;48.808;9.006;2023-03-03T02:07:10;97256.31;;;3.58;69.86
41703;BME280;861;48.808;9.006;2023-03-03T02:10:09;97253.38;;;3.63;70.01
41703;BME280;861;48.808;9.006;2023-03-03T02:12:51;97249.88;;;3.50;69.93
41703;BME280;861;48.808;9.006;2023-03-03T02:15:30;97248.78;;;3.63;70.18
41703;BME280;861;48.808;9.006;2023-03-03T02:18:14;97240.28;;;3.73;69.26
41703;BME280;861;48.808;9.006;2023-03-03T02:21:09;97242.19;;;3.97;68.00
41703;BME280;861;48.808;9.006;2023-03-03T02:24:24;97243.75;;;3.98;67.82
41703;BME280;861;48.808;9.006;2023-03-03T02:26:55;97239.16;;;4.10;67.83
41703;BME280;861;48.808;9.006;2023-03-03T02:29:22;97237.59;;;4.09;67.39
41703;BME280;861;48.808;9.006;2023-03-03T02:31:48;97239.47;;;4.09;66.88
41703;BME280;861;48.808;9.006;2023-03-03T02:34:14;97241.84;;;4.10;66.95
41703;BME280;861;48.808;9.006;2023-03-03T02:36:41;97235.44;;;4.15;66.50
41703;BME280;861;48.808;9.006;2023-03-03T02:39:23;97240.16;;;4.06;66.93
41703;BME280;861;48.808;9.006;2023-03-03T02:43:04;97242.41;;;4.04;66.46
41703;BME280;861;48.808;9.006;2023-03-03T02:45:33;97239.06;;;3.83;67.20
41703;BME280;861;48.808;9.006;2023-03-03T02:47:59;97243.53;;;3.91;67.30
41703;BME280;861;48.808;9.006;2023-03-03T02:50:25;97244.09;;;3.84;67.29
41703;BME280;861;48.808;9.006;2023-03-03T02:52:52;97249.03;;;3.94;66.97
41703;BME280;861;48.808;9.006;2023-03-03T02:55:18;97254.88;;;3.84;67.70
41703;BME280;861;48.808;9.006;2023-03-03T02:57:45;97257.66;;;3.76;68.07
41703;BME280;861;48.808;9.006;2023-03-03T03:00:12;97255.88;;;3.80;68.34
41703;BME280;861;48.808;9.006;2023-03-03T03:02:38;97258.00;;;3.74;68.32
41703;BME280;861;48.808;9.006;2023-03-03T03:05:05;97251.81;;;3.62;68.98
41703;BME280;861;48.808;9.006;2023-03-03T03:07:31;97262.25;;;3.63;69.52
41703;BME280;861;48.808;9.006;2023-03-03T03:09:57;97256.88;;;3.63;69.35
41703;BME280;861;48.808;9.006;2023-03-03T03:12:23;97262.50;;;3.70;69.54
41703;BME280;861;48.808;9.006;2023-03-03T03:14:49;97262.72;;;3.65;69.73
41703;BME280;861;48.808;9.006;2023-03-03T03:17:16;97256.63;;;3.56;70.22
41703;BME280;861;48.808;9.006;2023-03-03T03:19:42;97255.06;;;3.67;69.78
41703;BME280;861;48.808;9.006;2023-03-03T03:22:08;97258.13;;;3.78;69.07
41703;BME280;861;48.808;9.006;2023-03-03T03:24:34;97250.59;;;3.83;69.21
41703;BME280;861;48.808;9.006;2023-03-03T03:27:00;97252.16;;;3.60;69.56
41703;BME280;861;48.808;9.006;2023-03-03T03:29:27;97264.34;;;3.46;70.26
41703;BME280;861;48.808;9.006;2023-03-03T03:31:53;97265.16;;;3.46;69.86
41703;BME280;861;48.808;9.006;2023-03-03T03:34:19;97262.13;;;3.60;69.34
41703;BME280;861;48.808;9.006;2023-03-03T03:36:45;97259.25;;;3.89;68.81
41703;BME280;861;48.808;9.006;2023-03-03T03:39:12;97258.56;;;3.92;67.82
41703;BME280;861;48.808;9.006;2023-03-03T03:41:38;97264.06;;;3.71;68.57
41703;BME280;861;48.808;9.006;2023-03-03T03:44:04;97265.97;;;3.83;68.20
41703;BME280;861;48.808;9.006;2023-03-03T03:46:30;97267.88;;;3.82;68.43
41703;BME280;861;48.808;9.006;2023-03-03T03:48:57;97269.91;;;3.73;68.21
41703;BME280;861;48.808;9.006;2023-03-03T03:51:23;97272.13;;;3.83;68.18
41703;BME280;861;48.808;9.006;2023-03-03T03:53:49;97263.72;;;3.85;67.90
41703;BME280;861;48.808;9.006;2023-03-03T03:56:15;97260.13;;;3.93;68.01
41703;BME280;861;48.808;9.006;2023-03-03T03:58:42;97263.63;;;3.93;68.12
41703;BME280;861;48.808;9.006;2023-03-03T04:01:09;97256.66;;;3.80;68.32
41703;BME280;861;48.808;9.006;2023-03-03T04:03:35;97261.81;;;3.73;69.15
41703;BME280;861;48.808;9.006;2023-03-03T04:06:01;97249.25;;;3.77;68.75
41703;BME280;861;48.808;9.006;2023-03-03T04:08:28;97258.88;;;3.78;68.77
41703;BME280;861;48.808;9.006;2023-03-03T04:10:54;97252.28;;;3.76;68.53
41703;BME280;861;48.808;9.006;2023-03-03T04:13:20;97259.00;;;3.58;69.67
41703;BME280;861;48.808;9.006;2023-03-03T04:15:46;97257.19;;;3.62;69.65
41703;BME280;861;48.808;9.006;2023-03-03T04:18:12;97260.91;;;3.57;70.63
41703;BME280;861;48.808;9.006;2023-03-03T04:20:39;97258.94;;;3.34;71.27
41703;BME280;861;48.808;9.006;2023-03-03T04:23:06;97257.88;;;3.47;71.45
41703;BME280;861;48.808;9.006;2023-03-03T04:25:32;97265.28;;;3.62;70.85
41703;BME280;861;48.808;9.006;2023-03-03T04:27:58;97266.50;;;3.52;71.03
41703;BME280;861;48.808;9.006;2023-03-03T04:30:24;97272.00;;;3.56;71.08
41703;BME280;861;48.808;9.006;2023-03-03T04:32:51;97271.47;;;3.62;71.37
41703;BME280;861;48.808;9.006;2023-03-03T04:35:18;97274.38;;;3.57;71.21
41703;BME280;861;48.808;9.006;2023-03-03T04:37:44;97263.81;;;3.64;70.59
41703;BME280;861;48.808;9.006;2023-03-03T04:40:11;97263.72;;;3.73;70.18
41703;BME280;861;48.808;9.006;2023-03-03T04:42:37;97265.63;;;3.72;70.46
41703;BME280;861;48.808;9.006;2023-03-03T04:45:05;97264.06;;;3.83;70.48
41703;BME280;861;48.808;9.006;2023-03-03T04:47:32;97265.66;;;3.84;70.34
41703;BME280;861;48.808;9.006;2023-03-03T04:49:58;97269.00;;;3.93;70.49
41703;BME280;861;48.808;9.006;2023-03-03T04:52:25;97275.97;;;3.82;71.01
41703;BME280;861;48.808;9.006;2023-03-03T04:54:51;97276.84;;;3.86;70.97
41703;BME280;861;48.808;9.006;2023-03-03T04:57:18;97287.53;;;3.95;70.79
41703;BME280;861;48.808;9.006;2023-03-03T04:59:44;97282.03;;;4.03;70.49
41703;BME280;861;48.808;9.006;2023-03-03T05:02:10;97279.78;;;3.93;71.08
41703;BME280;861;48.808;9.006;2023-03-03T05:04:38;97285.53;;;4.16;69.87
41703;BME280;861;48.808;9.006;2023-03-03T05:07:04;97287.44;;;4.03;70.12
41703;BME280;861;48.808;9.006;2023-03-03T05:09:30;97290.22;;;4.07;70.78
41703;BME280;861;48.808;9.006;2023-03-03T05:11:56;97289.09;;;4.08;70.35
41703;BME280;861;48.808;9.006;2023-03-03T05:14:23;97286.84;;;4.22;70.35
41703;BME280;861;48.808;9.006;2023-03-03T05:16:49;97288.41;;;4.35;69.92
41703;BME280;861;48.808;9.006;2023-03-03T05:19:15;97292.44;;;4.53;69.06
41703;BME280;861;48.808;9.006;2023-03-03T05:21:41;97286.59;;;4.51;69.01
41703;BME280;861;48.808;9.006;2023-03-03T05:24:13;97292.09;;;4.54;69.06
41703;BME280;861;48.808;9.006;2023-03-03T05:26:40;97280.97;;;4.56;68.54
41703;BME280;861;48.808;9.006;2023-03-03T05:29:08;97291.53;;;4.61;68.58
41703;BME280;861;48.808;9.006;2023-03-03T05:31:35;97288.94;;;4.52;68.82
41703;BME280;861;48.808;9.006;2023-03-03T05:34:01;97285.91;;;4.54;68.92
41703;BME280;861;48.808;9.006;2023-03-03T05:36:28;97286.31;;;4.68;68.91
41703;BME280;861;48.808;9.006;2023-03-03T05:38:54;97293.31;;;4.57;69.04
41703;BME280;861;48.808;9.006;2023-03-03T05:41:21;97296.13;;;4.72;68.84
41703;BME280;861;48.808;9.006;2023-03-03T05:43:47;97294.84;;;4.82;68.34
41703;BME280;861;48.808;9.006;2023-03-03T05:46:13;97306.22;;;4.63;69.09
41703;BME280;861;48.808;9.006;2023-03-03T05:48:40;97304.75;;;4.78;68.87
41703;BME280;861;48.808;9.006;2023-03-03T05:51:06;97306.97;;;4.88;68.35
41703;BME280;861;48.808;9.006;2023-03-03T05:53:33;97312.59;;;4.83;67.87
41703;BME280;861;48.808;9.006;2023-03-03T05:55:59;97313.28;;;4.68;68.50
41703;BME280;861;48.808;9.006;2023-03-03T05:58:26;97316.66;;;4.65;68.42
41703;BME280;861;48.808;9.006;2023-03-03T06:00:53;97311.41;;;4.44;69.37
41703;BME280;861;48.808;9.006;2023-03-03T06:03:19;97323.75;;;4.57;68.81
41703;BME280;861;48.808;9.006;2023-03-03T06:05:45;97321.06;;;4.57;68.84
41703;BME280;861;48.808;9.006;2023-03-03T06:08:11;97317.47;;;4.65;69.04
41703;BME280;861;48.808;9.006;2023-03-03T06:10:38;97314.44;;;4.67;68.96
41703;BME280;861;48.808;9.006;2023-03-03T06:13:07;97321.19;;;4.37;70.25
41703;BME280;861;48.808;9.006;2023-03-03T06:15:33;97322.66;;;4.22;70.21
41703;BME280;861;48.808;9.006;2023-03-03T06:17:59;97323.88;;;4.13;71.03
41703;BME280;861;48.808;9.006;2023-03-03T06:20:26;97327.50;;;4.41;70.42
41703;BME280;861;48.808;9.006;2023-03-03T06:22:52;97325.91;;;4.52;70.08
41703;BME280;861;48.808;9.006;2023-03-03T06:25:18;97334.78;;;4.64;69.96
41703;BME280;861;48.808;9.006;2023-03-03T06:27:44;97329.38;;;4.64;69.61
41703;BME280;861;48.808;9.006;2023-03-03T06:30:11;97335.34;;;4.58;70.67
41703;BME280;861;48.808;9.006;2023-03-03T06:32:38;97334.97;;;4.71;70.21
41703;BME280;861;48.808;9.006;2023-03-03T06:35:06;97341.41;;;4.67;70.30
41703;BME280;861;48.808;9.006;2023-03-03T06:37:33;97336.78;;;4.55;70.14
41703;BME280;861;48.808;9.006;2023-03-03T06:39:59;97352.63;;;4.57;70.89
41703;BME280;861;48.808;9.006;2023-03-03T06:42:25;97348.59;;;4.51;70.43
41703;BME280;861;48.808;9.006;2023-03-03T06:44:52;97349.16;;;4.56;70.79
41703;BME280;861;48.808;9.006;2023-03-03T06:47:18;97351.72;;;4.65;70.75
41703;BME280;861;48.808;9.006;2023-03-03T06:49:44;97357.03;;;4.61;70.62
41703;BME280;861;48.808;9.006;2023-03-03T06:52:24;97357.47;;;4.63;70.90
41703;BME280;861;48.808;9.006;2023-03-03T06:55:00;97356.53;;;5.23;69.16
41703;BME280;861;48.808;9.006;2023-03-03T06:57:35;97365.59;;;5.03;69.62
41703;BME280;861;48.808;9.006;2023-03-03T07:00:25;97368.44;;;4.83;70.46
41703;BME280;861;48.808;9.006;2023-03-03T07:03:14;97368.53;;;5.10;69.59
41703;BME280;861;48.808;9.006;2023-03-03T07:05:44;97364.69;;;5.11;70.04
41703;BME280;861;48.808;9.006;2023-03-03T07:08:22;97373.91;;;5.10;70.40
41703;BME280;861;48.808;9.006;2023-03-03T07:10:52;97378.31;;;5.03;70.30
41703;BME280;861;48.808;9.006;2023-03-03T07:13:28;97372.38;;;4.97;70.86
41703;BME280;861;48.808;9.006;2023-03-03T07:16:02;97372.09;;;5.14;70.16
41703;BME280;861;48.808;9.006;2023-03-03T07:19:02;97373.34;;;5.17;70.47
41703;BME280;861;48.808;9.006;2023-03-03T07:21:36;97375.31;;;5.32;69.82
41703;BME280;861;48.808;9.006;2023-03-03T07:24:29;97387.25;;;5.58;67.30
41703;BME280;861;48.808;9.006;2023-03-03T07:27:25;97374.63;;;5.62;68.32
41703;BME280;861;48.808;9.006;2023-03-03T07:30:28;97371.81;;;5.59;69.01
41703;BME280;861;48.808;9.006;2023-03-03T07:32:58;97374.53;;;5.59;69.10
41703;BME280;861;48.808;9.006;2023-03-03T07:35:37;97379.09;;;5.43;69.66
41703;BME280;861;48.808;9.006;2023-03-03T07:38:38;97378.50;;;5.49;68.47
41703;BME280;861;48.808;9.006;2023-03-03T07:41:20;97383.34;;;5.44;69.07
41703;BME280;861;48.808;9.006;2023-03-03T07:44:34;97379.03;;;5.55;69.38
41703;BME280;861;48.808;9.006;2023-03-03T07:47:24;97387.00;;;5.63;69.09
41703;BME280;861;48.808;9.006;2023-03-03T07:49:59;97380.47;;;5.92;68.50
41703;BME280;861;48.808;9.006;2023-03-03T07:52:49;97379.94;;;6.02;67.75
41703;BME280;861;48.808;9.006;2023-03-03T07:55:38;97381.19;;;6.04;66.55
41703;BME280;861;48.808;9.006;2023-03-03T07:58:29;97389.81;;;6.10;65.24
41703;BME280;861;48.808;9.006;2023-03-03T08:01:45;97381.34;;;6.11;62.61
41703;BME280;861;48.808;9.006;2023-03-03T08:04:37;97395.22;;;6.10;64.36
41703;BME280;861;48.808;9.006;2023-03-03T08:07:21;97397.66;;;6.31;64.13
41703;BME280;861;48.808;9.006;2023-03-03T08:10:06;97408.22;;;6.36;61.45
41703;BME280;861;48.808;9.006;2023-03-03T08:13:15;97396.81;;;6.27;63.13
41703;BME280;861;48.808;9.006;2023-03-03T08:15:49;97392.25;;;6.46;61.83
41703;BME280;861;48.808;9.006;2023-03-03T08:18:44;97406.94;;;6.45;61.52
41703;BME280;861;48.808;9.006;2023-03-03T08:21:20;97405.13;;;6.49;60.94
41703;BME280;861;48.808;9.006;2023-03-03T08:23:50;97403.34;;;6.72;59.70
41703;BME280;861;48.808;9.006;2023-03-03T08:26:23;97399.50;;;6.27;61.07
41703;BME280;861;48.808;9.006;2023-03-03T08:28:51;97405.44;;;6.16;62.29
41703;BME280;861;48.808;9.006;2023-03-03T08:31:18;97396.34;;;6.56;61.00
41703;BME280;861;48.808;9.006;2023-03-03T08:33:47;97399.06;;;6.71;60.04
41703;BME280;861;48.808;9.006;2023-03-03T08:36:13;97398.53;;;6.66;60.74
41703;BME280;861;48.808;9.006;2023-03-03T08:38:40;97400.63;;;6.72;60.30
41703;BME280;861;48.808;9.006;2023-03-03T08:41:07;97394.09;;;6.42;61.78
41703;BME280;861;48.808;9.006;2023-03-03T08:43:33;97393.72;;;6.75;62.01
41703;BME280;861;48.808;9.006;2023-03-03T08:46:03;97394.66;;;6.98;60.97
41703;BME280;861;48.808;9.006;2023-03-03T08:48:32;97405.84;;;7.50;58.03
41703;BME280;861;48.808;9.006;2023-03-03T08:50:59;97402.59;;;7.25;59.04
41703;BME280;861;48.808;9.006;2023-03-03T08:53:26;97390.41;;;7.16;58.79
41703;BME280;861;48.808;9.006;2023-03-03T08:55:52;97394.47;;;7.25;58.76
41703;BME280;861;48.808;9.006;2023-03-03T08:58:20;97411.13;;;7.08;59.57
41703;BME280;861;48.808;9.006;2023-03-03T09:00:47;97406.88;;;7.07;59.17
41703;BME280;861;48.808;9.006;2023-03-03T09:03:13;97415.47;;;7.47;58.70
41703;BME280;861;48.808;9.006;2023-03-03T09:05:40;97406.91;;;7.64;58.53
41703;BME280;861;48.808;9.006;2023-03-03T09:08:08;97413.97;;;7.69;58.42
41703;BME280;861;48.808;9.006;2023-03-03T09:10:35;97411.09;;;7.43;57.51
41703;BME280;861;48.808;9.006;2023-03-03T09:13:18;97423.38;;;7.02;60.16
41703;BME280;861;48.808;9.006;2023-03-03T09:15:46;97434.50;;;7.51;60.28
41703;BME280;861;48.808;9.006;2023-03-03T09:18:36;97426.94;;;7.98;59.28
41703;BME280;861;48.808;9.006;2023-03-03T09:21:25;97435.88;;;8.63;58.31
41703;BME280;861;48.808;9.006;2023-03-03T09:23:59;97434.97;;;9.30;53.70
41703;BME280;861;48.808;9.006;2023-03-03T09:26:47;97436.53;;;8.79;57.09
41703;BME280;861;48.808;9.006;2023-03-03T09:32:01;97444.41;;;9.10;55.08
41703;BME280;861;48.808;9.006;2023-03-03T09:34:46;97443.00;;;8.93;56.43
41703;BME280;861;48.808;9.006;2023-03-03T09:37:29;97441.56;;;9.29;54.59
41703;BME280;861;48.808;9.006;2023-03-03T09:43:47;97437.84;;;9.70;54.64
41703;BME280;861;48.808;9.006;2023-03-03T09:47:08;97443.63;;;9.65;52.78
41703;BME280;861;48.808;9.006;2023-03-03T09:50:11;97443.63;;;9.65;52.49
41703;BME280;861;48.808;9.006;2023-03-03T09:56:32;97430.53;;;9.45;54.96
41703;BME280;861;48.808;9.006;2023-03-03T09:59:48;97435.78;;;9.60;54.68
41703;BME280;861;48.808;9.006;2023-03-03T10:18:34;97446.28;;;10.24;53.57
41703;BME280;861;48.808;9.006;2023-03-03T10:25:07;97444.59;;;10.49;52.32
41703;BME280;861;48.808;9.006;2023-03-03T10:28:09;97443.94;;;11.10;50.01
41703;BME280;861;48.808;9.006;2023-03-03T10:41:37;97442.63;;;11.41;51.50
41703;BME280;861;48.808;9.006;2023-03-03T10:45:03;97443.19;;;11.74;48.83
41703;BME280;861;48.808;9.006;2023-03-03T10:51:20;97442.84;;;11.83;48.17
41703;BME280;861;48.808;9.006;2023-03-03T10:54:43;97451.50;;;11.31;49.78
41703;BME280;861;48.808;9.006;2023-03-03T10:58:02;97441.16;;;11.03;51.71
41703;BME280;861;48.808;9.006;2023-03-03T11:01:28;97442.53;;;11.30;50.38
41703;BME280;861;48.808;9.006;2023-03-03T11:07:41;97440.84;;;11.73;48.25
41703;BME280;861;48.808;9.006;2023-03-03T11:17:26;97435.91;;;11.99;48.64
41703;BME280;861;48.808;9.006;2023-03-03T11:24:22;97445.94;;;11.78;50.55
41703;BME280;861;48.808;9.006;2023-03-03T11:33:39;97447.53;;;11.86;49.61
41703;BME280;861;48.808;9.006;2023-03-03T11:36:33;97446.84;;;12.03;47.85
41703;BME280;861;48.808;9.006;2023-03-03T11:39:13;97446.78;;;11.89;47.27
41703;BME280;861;48.808;9.006;2023-03-03T11:42:16;97443.84;;;11.54;48.91
41703;BME280;861;48.808;9.006;2023-03-03T11:45:58;97438.06;;;11.01;49.40
41703;BME280;861;48.808;9.006;2023-03-03T11:49:10;97436.75;;;11.39;47.81
41703;BME280;861;48.808;9.006;2023-03-03T11:55:08;97426.19;;;11.34;49.40
41703;BME280;861;48.808;9.006;2023-03-03T11:58:24;97428.84;;;11.20;50.14
41703;BME280;861;48.808;9.006;2023-03-03T12:01:54;97423.56;;;11.48;48.63
41703;BME280;861;48.808;9.006;2023-03-03T12:04:54;97419.72;;;11.59;48.15
41703;BME280;861;48.808;9.006;2023-03-03T12:08:07;97420.84;;;11.51;49.00
41703;BME280;861;48.808;9.006;2023-03-03T12:11:24;97418.31;;;11.18;49.02
41703;BME280;861;48.808;9.006;2023-03-03T12:17:50;97407.16;;;11.41;48.27
41703;BME280;861;48.808;9.006;2023-03-03T12:24:51;97404.50;;;11.58;47.78
41703;BME280;861;48.808;9.006;2023-03-03T12:31:05;97407.50;;;12.25;46.02
41703;BME280;861;48.808;9.006;2023-03-03T12:34:23;97396.44;;;11.79;48.20
41703;BME280;861;48.808;9.006;2023-03-03T12:40:34;97407.91;;;12.34;46.80
41703;BME280;861;48.808;9.006;2023-03-03T12:55:13;97394.66;;;13.34;44.09
41703;BME280;861;48.808;9.006;2023-03-03T12:58:00;97390.34;;;13.44;44.35
41703;BME280;861;48.808;9.006;2023-03-03T13:04:50;97395.59;;;13.97;43.84
41703;BME280;861;48.808;9.006;2023-03-03T13:11:35;97392.38;;;14.16;42.95
41703;BME280;861;48.808;9.006;2023-03-03T13:14:55;97392.72;;;14.32;41.97
41703;BME280;861;48.808;9.006;2023-03-03T13:18:19;97394.94;;;14.51;41.32
41703;BME280;861;48.808;9.006;2023-03-03T13:21:22;97392.09;;;13.96;43.05
41703;BME280;861;48.808;9.006;2023-03-03T13:27:18;97384.91;;;14.27;43.17
41703;BME280;861;48.808;9.006;2023-03-03T13:30:16;97388.19;;;14.62;41.86
41703;BME280;861;48.808;9.006;2023-03-03T13:33:13;97381.06;;;14.72;41.59
41703;BME280;861;48.808;9.006;2023-03-03T13:36:02;97387.84;;;14.57;41.75
41703;BME280;861;48.808;9.006;2023-03-03T13:38:59;97375.47;;;14.35;42.08
41703;BME280;861;48.808;9.006;2023-03-03T13:41:58;97383.56;;;14.52;41.53
41703;BME280;861;48.808;9.006;2023-03-03T13:44:41;97371.03;;;14.51;41.75
41703;BME280;861;48.808;9.006;2023-03-03T13:47:35;97368.00;;;14.90;40.55
41703;BME280;861;48.808;9.006;2023-03-03T13:50:21;97374.00;;;14.74;42.84
41703;BME280;861;48.808;9.006;2023-03-03T13:53:28;97367.72;;;14.77;42.09
41703;BME280;861;48.808;9.006;2023-03-03T13:56:42;97372.59;;;14.56;41.50
41703;BME280;861;48.808;9.006;2023-03-03T14:03:26;97370.56;;;14.67;41.77
41703;BME280;861;48.808;9.006;2023-03-03T14:06:24;97370.69;;;14.46;42.31
41703;BME280;861;48.808;9.006;2023-03-03T14:09:43;97364.31;;;14.59;41.48
41703;BME280;861;48.808;9.006;2023-03-03T14:12:46;97360.06;;;14.51;41.53
41703;BME280;861;48.808;9.006;2023-03-03T14:15:28;97359.34;;;14.44;41.31
41703;BME280;861;48.808;9.006;2023-03-03T14:18:29;97364.91;;;14.37;41.89
41703;BME280;861;48.808;9.006;2023-03-03T14:21:19;97358.16;;;14.48;42.07
41703;BME280;861;48.808;9.006;2023-03-03T14:24:18;97350.47;;;14.77;41.13
41703;BME280;861;48.808;9.006;2023-03-03T14:26:59;97358.66;;;14.84;42.14
41703;BME280;861;48.808;9.006;2023-03-03T14:31:54;97357.47;;;14.81;40.68
41703;BME280;861;48.808;9.006;2023-03-03T14:34:40;97362.25;;;14.74;41.71
41703;BME280;861;48.808;9.006;2023-03-03T14:37:44;97353.88;;;14.91;41.22
41703;BME280;861;48.808;9.006;2023-03-03T14:40:30;97355.75;;;15.01;41.77
41703;BME280;861;48.808;9.006;2023-03-03T14:43:05;97353.00;;;15.01;41.44
41703;BME280;861;48.808;9.006;2023-03-03T14:45:47;97350.63;;;14.59;41.52
41703;BME280;861;48.808;9.006;2023-03-03T14:48:24;97353.56;;;14.31;43.06
41703;BME280;861;48.808;9.006;2023-03-03T14:51:42;97355.84;;;14.43;43.36
41703;BME280;861;48.808;9.006;2023-03-03T14:54:36;97354.28;;;14.90;42.24
41703;BME280;861;48.808;9.006;2023-03-03T15:03:22;97349.25;;;14.81;42.77
41703;BME280;861;48.808;9.006;2023-03-03T15:05:55;97350.28;;;15.01;42.11
41703;BME280;861;48.808;9.006;2023-03-03T15:08:39;97354.34;;;15.23;42.00
41703;BME280;861;48.808;9.006;2023-03-03T15:13:44;97347.53;;;15.01;41.57
41703;BME280;861;48.808;9.006;2023-03-03T15:16:19;97346.13;;;14.83;42.08
41703;BME280;861;48.808;9.006;2023-03-03T15:28:46;97331.19;;;14.43;43.09
41703;BME280;861;48.808;9.006;2023-03-03T15:32:29;97333.03;;;14.57;42.48
41703;BME280;861;48.808;9.006;2023-03-03T15:35:13;97326.19;;;14.31;42.92
41703;BME280;861;48.808;9.006;2023-03-03T15:37:56;97326.19;;;14.28;43.43
41703;BME280;861;48.808;9.006;2023-03-03T15:41:00;97333.25;;;14.29;43.73
41703;BME280;861;48.808;9.006;2023-03-03T15:44:08;97337.53;;;14.30;43.34
41703;BME280;861;48.808;9.006;2023-03-03T15:47:20;97336.06;;;14.11;43.31
41703;BME280;861;48.808;9.006;2023-03-03T15:56:54;97336.88;;;14.05;43.72
41703;BME280;861;48.808;9.006;2023-03-03T16:00:19;97341.38;;;13.67;44.69
41703;BME280;861;48.808;9.006;2023-03-03T16:03:31;97340.66;;;13.52;44.53
41703;BME280;861;48.808;9.006;2023-03-03T16:06:59;97344.59;;;13.51;44.45
41703;BME280;861;48.808;9.006;2023-03-03T16:16:30;97348.81;;;13.66;44.46
41703;BME280;861;48.808;9.006;2023-03-03T16:19:49;97349.28;;;13.47;44.83
41703;BME280;861;48.808;9.006;2023-03-03T16:22:57;97352.09;;;13.30;44.96
41703;BME280;861;48.808;9.006;2023-03-03T16:26:35;97362.59;;;13.42;44.77
41703;BME280;861;48.808;9.006;2023-03-03T16:32:39;97357.56;;;13.30;45.39
41703;BME280;861;48.808;9.006;2023-03-03T16:35:38;97360.66;;;13.35;45.25
41703;BME280;861;48.808;9.006;2023-03-03T16:38:40;97364.63;;;13.10;45.94
41703;BME280;861;48.808;9.006;2023-03-03T16:41:55;97369.31;;;13.02;45.98
41703;BME280;861;48.808;9.006;2023-03-03T16:45:15;97368.91;;;12.93;46.11
41703;BME280;861;48.808;9.006;2023-03-03T16:51:29;97389.63;;;12.80;46.74
41703;BME280;861;48.808;9.006;2023-03-03T16:54:40;97383.75;;;12.78;46.68
41703;BME280;861;48.808;9.006;2023-03-03T17:01:27;97390.00;;;12.61;47.18
41703;BME280;861;48.808;9.006;2023-03-03T17:04:34;97400.16;;;12.54;47.19
41703;BME280;861;48.808;9.006;2023-03-03T17:11:25;97403.63;;;12.22;47.31
41703;BME280;861;48.808;9.006;2023-03-03T17:14:23;97393.41;;;12.02;47.20
41703;BME280;861;48.808;9.006;2023-03-03T17:20:47;97409.47;;;11.39;49.30
41703;BME280;861;48.808;9.006;2023-03-03T17:23:58;97411.78;;;11.33;48.75
41703;BME280;861;48.808;9.006;2023-03-03T17:28:16;97418.72;;;11.24;49.26
41703;BME280;861;48.808;9.006;2023-03-03T17:37:51;97437.78;;;11.17;48.83
41703;BME280;861;48.808;9.006;2023-03-03T17:41:38;97438.06;;;11.01;49.76